sensor_id;sensor_type;location;lat;lon;timestamp;P1;durP1;ratioP1;P2;durP2;ratioP2
58240;SDS011;45058;55.772;38.224;2022-10-19T00:01:14;20.02;;;5.20;;
58240;SDS011;45058;55.772;38.224;2022-10-19T00:03:43;22.50;;;5.97;;
58240;SDS011;45058;55.772;38.224;2022-10-19T00:06:14;21.40;;;5.72;;
58240;SDS011;45058;55.772;38.224;2022-10-19T00:08:43;14.65;;;5.50;;
58240;SDS011;45058;55.772;38.224;2022-10-19T00:11:09;13.45;;;5.85;;
58240;SDS011;45058;55.772;38.224;2022-10-19T00:13:36;14.80;;;6.15;;
58240;SDS011;45058;55.772;38.224;2022-10-19T00:16:06;20.55;;;5.63;;
58240;SDS011;45058;55.772;38.224;2022-10-19T00:18:34;22.77;;;6.07;;
58240;SDS011;45058;55.772;38.224;2022-10-19T00:21:03;20.25;;;5.93;;
58240;SDS011;45058;55.772;38.224;2022-10-19T00:23:30;14.75;;;5.43;;
58240;SDS011;45058;55.772;38.224;2022-10-19T00:25:57;25.23;;;5.90;;
58240;SDS011;45058;55.772;38.224;2022-10-19T00:28:23;15.77;;;5.47;;
58240;SDS011;45058;55.772;38.224;2022-10-19T00:30:49;16.27;;;5.60;;
58240;SDS011;45058;55.772;38.224;2022-10-19T00:33:15;18.92;;;6.32;;
58240;SDS011;45058;55.772;38.224;2022-10-19T00:35:47;18.15;;;5.85;;
58240;SDS011;45058;55.772;38.224;2022-10-19T00:38:15;14.88;;;5.68;;
58240;SDS011;45058;55.772;38.224;2022-10-19T00:40:42;16.60;;;5.57;;
58240;SDS011;45058;55.772;38.224;2022-10-19T00:43:12;13.93;;;5.72;;
58240;SDS011;45058;55.772;38.224;2022-10-19T00:45:40;18.83;;;6.85;;
58240;SDS011;45058;55.772;38.224;2022-10-19T00:48:06;14.88;;;6.10;;
58240;SDS011;45058;55.772;38.224;2022-10-19T00:50:33;19.60;;;6.68;;
58240;SDS011;45058;55.772;38.224;2022-10-19T00:52:59;19.65;;;5.15;;
58240;SDS011;45058;55.772;38.224;2022-10-19T00:55:25;13.38;;;5.38;;
58240;SDS011;45058;55.772;38.224;2022-10-19T00:57:51;19.13;;;5.78;;
58240;SDS011;45058;55.772;38.224;2022-10-19T01:00:17;10.98;;;5.03;;
58240;SDS011;45058;55.772;38.224;2022-10-19T01:02:42;18.45;;;6.13;;
58240;SDS011;45058;55.772;38.224;2022-10-19T01:05:08;17.52;;;5.60;;
58240;SDS011;45058;55.772;38.224;2022-10-19T01:07:35;12.52;;;5.80;;
58240;SDS011;45058;55.772;38.224;2022-10-19T01:10:02;11.90;;;5.78;;
58240;SDS011;45058;55.772;38.224;2022-10-19T01:15:31;13.82;;;5.75;;
58240;SDS011;45058;55.772;38.224;2022-10-19T01:35:09;12.27;;;5.10;;
58240;SDS011;45058;55.772;38.224;2022-10-19T01:37:43;20.40;;;6.20;;
58240;SDS011;45058;55.772;38.224;2022-10-19T01:42:58;16.02;;;5.78;;
58240;SDS011;45058;55.772;38.224;2022-10-19T01:45:29;24.40;;;6.68;;
58240;SDS011;45058;55.772;38.224;2022-10-19T01:48:06;15.20;;;6.60;;
58240;SDS011;45058;55.772;38.224;2022-10-19T01:50:57;11.98;;;5.72;;
58240;SDS011;45058;55.772;38.224;2022-10-19T01:53:22;19.45;;;6.65;;
58240;SDS011;45058;55.772;38.224;2022-10-19T01:55:50;20.52;;;6.95;;
58240;SDS011;45058;55.772;38.224;2022-10-19T01:58:17;21.92;;;7.78;;
58240;SDS011;45058;55.772;38.224;2022-10-19T02:00:47;23.30;;;6.15;;
58240;SDS011;45058;55.772;38.224;2022-10-19T02:03:14;18.05;;;6.70;;
58240;SDS011;45058;55.772;38.224;2022-10-19T02:05:40;18.40;;;6.60;;
58240;SDS011;45058;55.772;38.224;2022-10-19T02:08:09;17.25;;;6.55;;
58240;SDS011;45058;55.772;38.224;2022-10-19T02:10:38;14.45;;;6.68;;
58240;SDS011;45058;55.772;38.224;2022-10-19T02:13:06;18.15;;;6.15;;
58240;SDS011;45058;55.772;38.224;2022-10-19T02:18:23;24.38;;;6.93;;
58240;SDS011;45058;55.772;38.224;2022-10-19T02:20:51;18.33;;;6.93;;
58240;SDS011;45058;55.772;38.224;2022-10-19T02:23:17;17.45;;;7.13;;
58240;SDS011;45058;55.772;38.224;2022-10-19T02:25:46;16.55;;;8.07;;
58240;SDS011;45058;55.772;38.224;2022-10-19T02:28:12;16.85;;;7.88;;
58240;SDS011;45058;55.772;38.224;2022-10-19T02:30:38;13.23;;;7.80;;
58240;SDS011;45058;55.772;38.224;2022-10-19T02:33:04;15.93;;;8.95;;
58240;SDS011;45058;55.772;38.224;2022-10-19T02:35:32;23.80;;;9.05;;
58240;SDS011;45058;55.772;38.224;2022-10-19T02:37:58;17.50;;;9.60;;
58240;SDS011;45058;55.772;38.224;2022-10-19T02:40:25;22.30;;;10.13;;
58240;SDS011;45058;55.772;38.224;2022-10-19T02:42:57;16.63;;;9.23;;
58240;SDS011;45058;55.772;38.224;2022-10-19T02:45:28;22.67;;;9.07;;
58240;SDS011;45058;55.772;38.224;2022-10-19T02:47:59;25.17;;;9.18;;
58240;SDS011;45058;55.772;38.224;2022-10-19T02:50:28;18.45;;;8.48;;
58240;SDS011;45058;55.772;38.224;2022-10-19T02:52:53;21.05;;;8.25;;
58240;SDS011;45058;55.772;38.224;2022-10-19T02:55:19;14.38;;;8.05;;
58240;SDS011;45058;55.772;38.224;2022-10-19T02:57:45;18.42;;;7.95;;
58240;SDS011;45058;55.772;38.224;2022-10-19T03:00:11;16.80;;;7.20;;
58240;SDS011;45058;55.772;38.224;2022-10-19T03:02:37;15.85;;;7.28;;
58240;SDS011;45058;55.772;38.224;2022-10-19T03:05:03;20.15;;;6.90;;
58240;SDS011;45058;55.772;38.224;2022-10-19T03:07:29;17.40;;;6.88;;
58240;SDS011;45058;55.772;38.224;2022-10-19T03:09:55;14.88;;;6.88;;
58240;SDS011;45058;55.772;38.224;2022-10-19T03:12:21;21.17;;;7.63;;
58240;SDS011;45058;55.772;38.224;2022-10-19T03:14:47;28.02;;;8.63;;
58240;SDS011;45058;55.772;38.224;2022-10-19T03:17:13;29.45;;;8.48;;
58240;SDS011;45058;55.772;38.224;2022-10-19T03:19:39;21.10;;;8.18;;
58240;SDS011;45058;55.772;38.224;2022-10-19T03:22:05;21.15;;;7.15;;
58240;SDS011;45058;55.772;38.224;2022-10-19T03:24:31;20.48;;;7.78;;
58240;SDS011;45058;55.772;38.224;2022-10-19T03:26:57;15.73;;;7.82;;
58240;SDS011;45058;55.772;38.224;2022-10-19T03:29:23;28.42;;;8.10;;
58240;SDS011;45058;55.772;38.224;2022-10-19T03:31:49;15.18;;;7.57;;
58240;SDS011;45058;55.772;38.224;2022-10-19T03:34:15;15.57;;;7.20;;
58240;SDS011;45058;55.772;38.224;2022-10-19T03:36:41;12.70;;;6.40;;
58240;SDS011;45058;55.772;38.224;2022-10-19T03:39:09;18.05;;;6.93;;
58240;SDS011;45058;55.772;38.224;2022-10-19T03:41:36;17.83;;;7.57;;
58240;SDS011;45058;55.772;38.224;2022-10-19T03:44:03;16.85;;;7.28;;
58240;SDS011;45058;55.772;38.224;2022-10-19T03:46:29;16.98;;;7.72;;
58240;SDS011;45058;55.772;38.224;2022-10-19T03:48:55;18.15;;;7.13;;
58240;SDS011;45058;55.772;38.224;2022-10-19T03:51:22;19.25;;;7.70;;
58240;SDS011;45058;55.772;38.224;2022-10-19T03:53:51;36.08;;;8.35;;
58240;SDS011;45058;55.772;38.224;2022-10-19T03:56:22;21.33;;;8.05;;
58240;SDS011;45058;55.772;38.224;2022-10-19T03:58:49;19.10;;;7.47;;
58240;SDS011;45058;55.772;38.224;2022-10-19T04:01:20;12.57;;;7.18;;
58240;SDS011;45058;55.772;38.224;2022-10-19T04:03:54;13.20;;;7.28;;
58240;SDS011;45058;55.772;38.224;2022-10-19T04:06:23;14.77;;;7.03;;
58240;SDS011;45058;55.772;38.224;2022-10-19T04:08:59;14.85;;;7.57;;
58240;SDS011;45058;55.772;38.224;2022-10-19T04:11:26;10.77;;;6.93;;
58240;SDS011;45058;55.772;38.224;2022-10-19T04:13:54;14.43;;;7.78;;
58240;SDS011;45058;55.772;38.224;2022-10-19T04:16:22;10.95;;;6.82;;
58240;SDS011;45058;55.772;38.224;2022-10-19T04:18:49;13.32;;;8.50;;
58240;SDS011;45058;55.772;38.224;2022-10-19T04:21:31;12.40;;;7.78;;
58240;SDS011;45058;55.772;38.224;2022-10-19T04:24:00;13.18;;;7.63;;
58240;SDS011;45058;55.772;38.224;2022-10-19T04:26:28;17.05;;;8.70;;
58240;SDS011;45058;55.772;38.224;2022-10-19T04:28:58;21.25;;;8.13;;
58240;SDS011;45058;55.772;38.224;2022-10-19T04:31:25;11.07;;;7.82;;
58240;SDS011;45058;55.772;38.224;2022-10-19T04:33:52;11.93;;;8.13;;
58240;SDS011;45058;55.772;38.224;2022-10-19T04:36:18;14.65;;;8.15;;
58240;SDS011;45058;55.772;38.224;2022-10-19T04:38:44;16.83;;;8.02;;
58240;SDS011;45058;55.772;38.224;2022-10-19T04:41:11;14.52;;;8.00;;
58240;SDS011;45058;55.772;38.224;2022-10-19T04:43:39;12.18;;;7.38;;
58240;SDS011;45058;55.772;38.224;2022-10-19T04:46:09;14.65;;;8.02;;
58240;SDS011;45058;55.772;38.224;2022-10-19T04:48:37;12.13;;;7.63;;
58240;SDS011;45058;55.772;38.224;2022-10-19T04:51:03;20.63;;;8.55;;
58240;SDS011;45058;55.772;38.224;2022-10-19T04:53:30;17.80;;;8.23;;
58240;SDS011;45058;55.772;38.224;2022-10-19T04:55:57;26.50;;;9.40;;
58240;SDS011;45058;55.772;38.224;2022-10-19T04:58:23;19.13;;;9.75;;
58240;SDS011;45058;55.772;38.224;2022-10-19T05:00:49;21.48;;;9.38;;
58240;SDS011;45058;55.772;38.224;2022-10-19T05:03:16;26.95;;;10.32;;
58240;SDS011;45058;55.772;38.224;2022-10-19T05:05:42;20.80;;;9.40;;
58240;SDS011;45058;55.772;38.224;2022-10-19T05:08:08;14.95;;;8.88;;
58240;SDS011;45058;55.772;38.224;2022-10-19T05:10:35;14.55;;;8.95;;
58240;SDS011;45058;55.772;38.224;2022-10-19T05:13:01;17.05;;;8.15;;
58240;SDS011;45058;55.772;38.224;2022-10-19T05:15:28;15.75;;;8.68;;
58240;SDS011;45058;55.772;38.224;2022-10-19T05:17:55;13.60;;;7.80;;
58240;SDS011;45058;55.772;38.224;2022-10-19T05:20:22;13.90;;;7.75;;
58240;SDS011;45058;55.772;38.224;2022-10-19T05:22:49;13.57;;;7.63;;
58240;SDS011;45058;55.772;38.224;2022-10-19T05:25:15;14.07;;;7.60;;
58240;SDS011;45058;55.772;38.224;2022-10-19T05:27:41;12.32;;;6.93;;
58240;SDS011;45058;55.772;38.224;2022-10-19T05:30:07;15.27;;;7.78;;
58240;SDS011;45058;55.772;38.224;2022-10-19T05:32:33;13.57;;;6.70;;
58240;SDS011;45058;55.772;38.224;2022-10-19T05:35:00;12.02;;;7.50;;
58240;SDS011;45058;55.772;38.224;2022-10-19T05:37:26;12.40;;;7.13;;
58240;SDS011;45058;55.772;38.224;2022-10-19T05:39:55;13.40;;;7.68;;
58240;SDS011;45058;55.772;38.224;2022-10-19T05:42:21;15.32;;;7.68;;
58240;SDS011;45058;55.772;38.224;2022-10-19T05:44:47;15.55;;;6.82;;
58240;SDS011;45058;55.772;38.224;2022-10-19T05:47:13;13.40;;;7.05;;
58240;SDS011;45058;55.772;38.224;2022-10-19T05:49:39;11.02;;;7.35;;
58240;SDS011;45058;55.772;38.224;2022-10-19T05:52:05;12.25;;;6.82;;
58240;SDS011;45058;55.772;38.224;2022-10-19T05:54:31;13.65;;;7.45;;
58240;SDS011;45058;55.772;38.224;2022-10-19T05:56:57;11.27;;;7.70;;
58240;SDS011;45058;55.772;38.224;2022-10-19T05:59:23;14.38;;;7.30;;
58240;SDS011;45058;55.772;38.224;2022-10-19T06:01:49;15.63;;;8.18;;
58240;SDS011;45058;55.772;38.224;2022-10-19T06:04:15;17.98;;;7.72;;
58240;SDS011;45058;55.772;38.224;2022-10-19T06:06:41;12.50;;;8.02;;
58240;SDS011;45058;55.772;38.224;2022-10-19T06:09:08;13.13;;;8.35;;
58240;SDS011;45058;55.772;38.224;2022-10-19T06:11:35;17.73;;;8.45;;
58240;SDS011;45058;55.772;38.224;2022-10-19T06:14:04;18.15;;;8.35;;
58240;SDS011;45058;55.772;38.224;2022-10-19T06:16:33;17.20;;;8.65;;
58240;SDS011;45058;55.772;38.224;2022-10-19T06:18:59;11.95;;;7.68;;
58240;SDS011;45058;55.772;38.224;2022-10-19T06:21:26;17.27;;;8.90;;
58240;SDS011;45058;55.772;38.224;2022-10-19T06:23:57;17.75;;;9.48;;
58240;SDS011;45058;55.772;38.224;2022-10-19T06:26:25;12.68;;;8.63;;
58240;SDS011;45058;55.772;38.224;2022-10-19T06:28:53;12.85;;;8.52;;
58240;SDS011;45058;55.772;38.224;2022-10-19T06:31:32;15.48;;;9.48;;
58240;SDS011;45058;55.772;38.224;2022-10-19T06:33:59;18.05;;;9.77;;
58240;SDS011;45058;55.772;38.224;2022-10-19T06:36:26;13.98;;;9.48;;
58240;SDS011;45058;55.772;38.224;2022-10-19T06:38:53;14.95;;;9.43;;
58240;SDS011;45058;55.772;38.224;2022-10-19T06:41:21;13.35;;;9.60;;
58240;SDS011;45058;55.772;38.224;2022-10-19T06:43:48;11.82;;;8.95;;
58240;SDS011;45058;55.772;38.224;2022-10-19T06:46:18;10.82;;;8.63;;
58240;SDS011;45058;55.772;38.224;2022-10-19T06:48:50;10.55;;;8.00;;
58240;SDS011;45058;55.772;38.224;2022-10-19T06:51:24;15.88;;;9.05;;
58240;SDS011;45058;55.772;38.224;2022-10-19T06:53:52;14.43;;;8.52;;
58240;SDS011;45058;55.772;38.224;2022-10-19T06:56:19;12.80;;;8.73;;
58240;SDS011;45058;55.772;38.224;2022-10-19T06:58:45;17.40;;;8.55;;
58240;SDS011;45058;55.772;38.224;2022-10-19T07:01:12;13.05;;;8.13;;
58240;SDS011;45058;55.772;38.224;2022-10-19T07:03:38;13.50;;;9.05;;
58240;SDS011;45058;55.772;38.224;2022-10-19T07:06:08;12.57;;;8.30;;
58240;SDS011;45058;55.772;38.224;2022-10-19T07:08:35;24.00;;;9.73;;
58240;SDS011;45058;55.772;38.224;2022-10-19T07:11:03;38.47;;;9.93;;
58240;SDS011;45058;55.772;38.224;2022-10-19T07:13:32;19.05;;;10.27;;
58240;SDS011;45058;55.772;38.224;2022-10-19T07:16:02;22.45;;;11.38;;
58240;SDS011;45058;55.772;38.224;2022-10-19T07:18:32;17.98;;;10.70;;
58240;SDS011;45058;55.772;38.224;2022-10-19T07:21:00;20.88;;;11.57;;
58240;SDS011;45058;55.772;38.224;2022-10-19T07:23:28;21.98;;;11.98;;
58240;SDS011;45058;55.772;38.224;2022-10-19T07:25:55;20.90;;;11.93;;
58240;SDS011;45058;55.772;38.224;2022-10-19T07:28:26;22.35;;;12.05;;
58240;SDS011;45058;55.772;38.224;2022-10-19T07:30:53;23.40;;;11.93;;
58240;SDS011;45058;55.772;38.224;2022-10-19T07:33:20;33.35;;;13.48;;
58240;SDS011;45058;55.772;38.224;2022-10-19T07:35:46;22.98;;;11.80;;
58240;SDS011;45058;55.772;38.224;2022-10-19T07:38:12;23.13;;;12.45;;
58240;SDS011;45058;55.772;38.224;2022-10-19T07:40:38;24.45;;;12.00;;
58240;SDS011;45058;55.772;38.224;2022-10-19T07:43:04;22.98;;;12.70;;
58240;SDS011;45058;55.772;38.224;2022-10-19T07:45:31;20.05;;;11.52;;
58240;SDS011;45058;55.772;38.224;2022-10-19T07:47:57;18.48;;;10.20;;
58240;SDS011;45058;55.772;38.224;2022-10-19T07:50:24;20.48;;;11.80;;
58240;SDS011;45058;55.772;38.224;2022-10-19T07:52:52;17.35;;;10.85;;
58240;SDS011;45058;55.772;38.224;2022-10-19T07:55:18;19.63;;;10.93;;
58240;SDS011;45058;55.772;38.224;2022-10-19T07:57:48;19.83;;;11.50;;
58240;SDS011;45058;55.772;38.224;2022-10-19T08:00:15;16.55;;;11.27;;
58240;SDS011;45058;55.772;38.224;2022-10-19T08:02:41;19.40;;;11.88;;
58240;SDS011;45058;55.772;38.224;2022-10-19T08:05:08;23.30;;;12.30;;
58240;SDS011;45058;55.772;38.224;2022-10-19T08:07:37;29.50;;;14.18;;
58240;SDS011;45058;55.772;38.224;2022-10-19T08:10:03;22.98;;;12.60;;
58240;SDS011;45058;55.772;38.224;2022-10-19T08:12:29;24.52;;;13.00;;
58240;SDS011;45058;55.772;38.224;2022-10-19T08:14:55;23.92;;;12.68;;
58240;SDS011;45058;55.772;38.224;2022-10-19T08:17:21;27.25;;;13.05;;
58240;SDS011;45058;55.772;38.224;2022-10-19T08:19:47;23.85;;;12.32;;
58240;SDS011;45058;55.772;38.224;2022-10-19T08:22:14;18.42;;;10.73;;
58240;SDS011;45058;55.772;38.224;2022-10-19T08:24:40;22.58;;;11.55;;
58240;SDS011;45058;55.772;38.224;2022-10-19T08:27:06;18.60;;;9.73;;
58240;SDS011;45058;55.772;38.224;2022-10-19T08:29:32;12.00;;;8.52;;
58240;SDS011;45058;55.772;38.224;2022-10-19T08:31:58;16.98;;;9.32;;
58240;SDS011;45058;55.772;38.224;2022-10-19T08:34:24;12.80;;;8.55;;
58240;SDS011;45058;55.772;38.224;2022-10-19T08:36:50;12.20;;;9.07;;
58240;SDS011;45058;55.772;38.224;2022-10-19T08:39:18;18.50;;;9.65;;
58240;SDS011;45058;55.772;38.224;2022-10-19T08:49:34;14.18;;;9.60;;
58240;SDS011;45058;55.772;38.224;2022-10-19T08:52:03;15.55;;;8.85;;
58240;SDS011;45058;55.772;38.224;2022-10-19T08:54:51;13.95;;;8.60;;
58240;SDS011;45058;55.772;38.224;2022-10-19T09:00:48;17.15;;;9.10;;
58240;SDS011;45058;55.772;38.224;2022-10-19T09:03:12;10.45;;;8.27;;
58240;SDS011;45058;55.772;38.224;2022-10-19T09:08:45;12.30;;;8.80;;
58240;SDS011;45058;55.772;38.224;2022-10-19T09:11:12;13.93;;;9.40;;
58240;SDS011;45058;55.772;38.224;2022-10-19T09:13:40;14.88;;;9.68;;
58240;SDS011;45058;55.772;38.224;2022-10-19T09:16:12;15.98;;;10.45;;
58240;SDS011;45058;55.772;38.224;2022-10-19T09:18:40;13.38;;;9.73;;
58240;SDS011;45058;55.772;38.224;2022-10-19T09:23:57;11.88;;;9.05;;
58240;SDS011;45058;55.772;38.224;2022-10-19T09:26:34;12.07;;;8.63;;
58240;SDS011;45058;55.772;38.224;2022-10-19T09:29:05;15.80;;;9.88;;
58240;SDS011;45058;55.772;38.224;2022-10-19T09:31:37;15.88;;;10.38;;
58240;SDS011;45058;55.772;38.224;2022-10-19T09:34:15;14.90;;;9.65;;
58240;SDS011;45058;55.772;38.224;2022-10-19T09:36:57;20.88;;;10.18;;
58240;SDS011;45058;55.772;38.224;2022-10-19T09:39:25;16.85;;;10.35;;
58240;SDS011;45058;55.772;38.224;2022-10-19T09:41:59;16.05;;;10.57;;
58240;SDS011;45058;55.772;38.224;2022-10-19T09:44:45;22.60;;;10.13;;
58240;SDS011;45058;55.772;38.224;2022-10-19T09:52:45;16.27;;;10.70;;
58240;SDS011;45058;55.772;38.224;2022-10-19T09:57:45;17.77;;;9.95;;
58240;SDS011;45058;55.772;38.224;2022-10-19T10:00:20;16.00;;;9.88;;
58240;SDS011;45058;55.772;38.224;2022-10-19T10:02:52;16.77;;;9.55;;
58240;SDS011;45058;55.772;38.224;2022-10-19T10:05:19;21.40;;;14.85;;
58240;SDS011;45058;55.772;38.224;2022-10-19T10:07:54;36.30;;;27.42;;
58240;SDS011;45058;55.772;38.224;2022-10-19T10:10:22;19.45;;;12.93;;
58240;SDS011;45058;55.772;38.224;2022-10-19T10:12:50;12.85;;;10.27;;
58240;SDS011;45058;55.772;38.224;2022-10-19T10:15:20;26.15;;;12.80;;
58240;SDS011;45058;55.772;38.224;2022-10-19T10:17:48;16.50;;;10.45;;
58240;SDS011;45058;55.772;38.224;2022-10-19T10:25:32;33.80;;;20.63;;
58240;SDS011;45058;55.772;38.224;2022-10-19T10:28:03;26.15;;;14.75;;
58240;SDS011;45058;55.772;38.224;2022-10-19T10:30:44;22.25;;;13.52;;
58240;SDS011;45058;55.772;38.224;2022-10-19T10:33:15;31.55;;;19.60;;
58240;SDS011;45058;55.772;38.224;2022-10-19T10:35:47;18.92;;;12.13;;
58240;SDS011;45058;55.772;38.224;2022-10-19T10:38:24;18.65;;;12.82;;
58240;SDS011;45058;55.772;38.224;2022-10-19T10:40:53;12.68;;;8.82;;
58240;SDS011;45058;55.772;38.224;2022-10-19T10:43:25;12.10;;;8.48;;
58240;SDS011;45058;55.772;38.224;2022-10-19T10:45:55;11.50;;;8.82;;
58240;SDS011;45058;55.772;38.224;2022-10-19T10:48:36;14.98;;;11.52;;
58240;SDS011;45058;55.772;38.224;2022-10-19T10:53:49;18.15;;;10.27;;
58240;SDS011;45058;55.772;38.224;2022-10-19T10:56:23;17.80;;;10.68;;
58240;SDS011;45058;55.772;38.224;2022-10-19T10:59:04;15.77;;;10.88;;
58240;SDS011;45058;55.772;38.224;2022-10-19T11:01:40;16.63;;;10.77;;
58240;SDS011;45058;55.772;38.224;2022-10-19T11:04:11;14.32;;;10.82;;
58240;SDS011;45058;55.772;38.224;2022-10-19T11:06:50;16.25;;;10.65;;
58240;SDS011;45058;55.772;38.224;2022-10-19T11:09:27;23.67;;;10.52;;
58240;SDS011;45058;55.772;38.224;2022-10-19T11:11:56;11.27;;;7.68;;
58240;SDS011;45058;55.772;38.224;2022-10-19T11:16:56;16.73;;;7.25;;
58240;SDS011;45058;55.772;38.224;2022-10-19T11:25:03;7.22;;;4.55;;
58240;SDS011;45058;55.772;38.224;2022-10-19T11:33:32;9.45;;;5.47;;
58240;SDS011;45058;55.772;38.224;2022-10-19T11:36:23;11.07;;;4.43;;
58240;SDS011;45058;55.772;38.224;2022-10-19T11:44:47;6.97;;;4.80;;
58240;SDS011;45058;55.772;38.224;2022-10-19T11:50:37;7.30;;;4.80;;
58240;SDS011;45058;55.772;38.224;2022-10-19T12:14:38;8.88;;;6.90;;
58240;SDS011;45058;55.772;38.224;2022-10-19T12:17:09;8.25;;;6.13;;
58240;SDS011;45058;55.772;38.224;2022-10-19T12:19:41;9.23;;;6.27;;
58240;SDS011;45058;55.772;38.224;2022-10-19T12:22:16;8.77;;;5.70;;
58240;SDS011;45058;55.772;38.224;2022-10-19T12:24:46;10.23;;;6.32;;
58240;SDS011;45058;55.772;38.224;2022-10-19T12:27:15;11.90;;;5.53;;
58240;SDS011;45058;55.772;38.224;2022-10-19T12:29:43;7.88;;;5.93;;
58240;SDS011;45058;55.772;38.224;2022-10-19T12:32:14;10.20;;;6.00;;
58240;SDS011;45058;55.772;38.224;2022-10-19T12:34:55;17.20;;;7.05;;
58240;SDS011;45058;55.772;38.224;2022-10-19T12:40:12;7.28;;;4.55;;
58240;SDS011;45058;55.772;38.224;2022-10-19T12:42:55;7.43;;;4.60;;
58240;SDS011;45058;55.772;38.224;2022-10-19T12:45:31;8.45;;;4.63;;
58240;SDS011;45058;55.772;38.224;2022-10-19T12:53:26;8.98;;;4.78;;
58240;SDS011;45058;55.772;38.224;2022-10-19T12:56:08;7.63;;;4.30;;
58240;SDS011;45058;55.772;38.224;2022-10-19T13:01:17;7.63;;;5.20;;
58240;SDS011;45058;55.772;38.224;2022-10-19T13:06:40;5.38;;;4.28;;
58240;SDS011;45058;55.772;38.224;2022-10-19T13:09:11;10.60;;;5.20;;
58240;SDS011;45058;55.772;38.224;2022-10-19T13:14:47;12.10;;;5.70;;
58240;SDS011;45058;55.772;38.224;2022-10-19T13:25:33;8.70;;;3.90;;
58240;SDS011;45058;55.772;38.224;2022-10-19T13:28:33;5.30;;;4.07;;
58240;SDS011;45058;55.772;38.224;2022-10-19T13:40:59;4.90;;;3.60;;
58240;SDS011;45058;55.772;38.224;2022-10-19T13:55:15;6.53;;;2.72;;
58240;SDS011;45058;55.772;38.224;2022-10-19T13:57:57;5.15;;;3.20;;
58240;SDS011;45058;55.772;38.224;2022-10-19T14:00:29;6.82;;;3.08;;
58240;SDS011;45058;55.772;38.224;2022-10-19T14:08:48;5.25;;;3.15;;
58240;SDS011;45058;55.772;38.224;2022-10-19T14:11:40;9.43;;;3.10;;
58240;SDS011;45058;55.772;38.224;2022-10-19T14:14:26;5.22;;;3.05;;
58240;SDS011;45058;55.772;38.224;2022-10-19T14:16:56;9.05;;;3.55;;
58240;SDS011;45058;55.772;38.224;2022-10-19T14:19:28;8.13;;;3.60;;
58240;SDS011;45058;55.772;38.224;2022-10-19T14:22:19;13.60;;;3.75;;
58240;SDS011;45058;55.772;38.224;2022-10-19T14:24:48;5.47;;;3.92;;
58240;SDS011;45058;55.772;38.224;2022-10-19T14:27:21;7.50;;;3.85;;
58240;SDS011;45058;55.772;38.224;2022-10-19T14:29:49;9.55;;;4.20;;
58240;SDS011;45058;55.772;38.224;2022-10-19T14:32:17;9.50;;;4.15;;
58240;SDS011;45058;55.772;38.224;2022-10-19T14:34:50;6.28;;;4.03;;
58240;SDS011;45058;55.772;38.224;2022-10-19T14:37:21;7.32;;;4.13;;
58240;SDS011;45058;55.772;38.224;2022-10-19T14:40:05;6.55;;;3.97;;
58240;SDS011;45058;55.772;38.224;2022-10-19T14:42:40;7.82;;;3.92;;
58240;SDS011;45058;55.772;38.224;2022-10-19T14:45:12;6.18;;;3.80;;
58240;SDS011;45058;55.772;38.224;2022-10-19T14:47:51;6.50;;;3.60;;
58240;SDS011;45058;55.772;38.224;2022-10-19T14:50:18;7.97;;;3.95;;
58240;SDS011;45058;55.772;38.224;2022-10-19T14:52:47;8.50;;;4.07;;
58240;SDS011;45058;55.772;38.224;2022-10-19T14:55:17;6.05;;;3.78;;
58240;SDS011;45058;55.772;38.224;2022-10-19T14:57:43;11.48;;;3.90;;
58240;SDS011;45058;55.772;38.224;2022-10-19T15:00:19;7.88;;;4.07;;
58240;SDS011;45058;55.772;38.224;2022-10-19T15:02:50;12.10;;;6.38;;
58240;SDS011;45058;55.772;38.224;2022-10-19T15:05:23;10.43;;;4.72;;
58240;SDS011;45058;55.772;38.224;2022-10-19T15:07:51;8.48;;;4.03;;
58240;SDS011;45058;55.772;38.224;2022-10-19T15:10:30;5.88;;;4.30;;
58240;SDS011;45058;55.772;38.224;2022-10-19T15:13:22;10.23;;;6.47;;
58240;SDS011;45058;55.772;38.224;2022-10-19T15:15:51;6.38;;;4.45;;
58240;SDS011;45058;55.772;38.224;2022-10-19T15:18:18;6.13;;;4.15;;
58240;SDS011;45058;55.772;38.224;2022-10-19T15:20:47;9.48;;;4.20;;
58240;SDS011;45058;55.772;38.224;2022-10-19T15:23:44;6.25;;;3.80;;
58240;SDS011;45058;55.772;38.224;2022-10-19T15:26:13;5.85;;;3.58;;
58240;SDS011;45058;55.772;38.224;2022-10-19T15:31:19;6.60;;;3.95;;
58240;SDS011;45058;55.772;38.224;2022-10-19T15:33:52;8.95;;;4.45;;
58240;SDS011;45058;55.772;38.224;2022-10-19T15:36:22;6.68;;;3.97;;
58240;SDS011;45058;55.772;38.224;2022-10-19T15:39:00;5.13;;;3.90;;
58240;SDS011;45058;55.772;38.224;2022-10-19T15:41:29;10.35;;;4.13;;
58240;SDS011;45058;55.772;38.224;2022-10-19T15:43:59;7.63;;;4.50;;
58240;SDS011;45058;55.772;38.224;2022-10-19T15:46:32;12.95;;;4.70;;
58240;SDS011;45058;55.772;38.224;2022-10-19T15:49:00;6.50;;;4.00;;
58240;SDS011;45058;55.772;38.224;2022-10-19T15:51:33;8.10;;;4.55;;
58240;SDS011;45058;55.772;38.224;2022-10-19T15:54:19;10.75;;;4.15;;
58240;SDS011;45058;55.772;38.224;2022-10-19T15:56:46;8.85;;;4.78;;
58240;SDS011;45058;55.772;38.224;2022-10-19T15:59:16;7.05;;;4.80;;
58240;SDS011;45058;55.772;38.224;2022-10-19T16:01:44;12.57;;;5.13;;
58240;SDS011;45058;55.772;38.224;2022-10-19T16:04:12;7.63;;;4.55;;
58240;SDS011;45058;55.772;38.224;2022-10-19T16:06:39;8.98;;;4.28;;
58240;SDS011;45058;55.772;38.224;2022-10-19T16:09:07;17.55;;;5.28;;
58240;SDS011;45058;55.772;38.224;2022-10-19T16:11:42;6.65;;;3.97;;
58240;SDS011;45058;55.772;38.224;2022-10-19T16:14:08;9.80;;;4.53;;
58240;SDS011;45058;55.772;38.224;2022-10-19T16:16:34;8.80;;;3.92;;
58240;SDS011;45058;55.772;38.224;2022-10-19T16:19:00;7.05;;;3.60;;
58240;SDS011;45058;55.772;38.224;2022-10-19T16:21:28;8.05;;;3.63;;
58240;SDS011;45058;55.772;38.224;2022-10-19T16:23:55;14.75;;;3.60;;
58240;SDS011;45058;55.772;38.224;2022-10-19T16:26:22;7.53;;;3.05;;
58240;SDS011;45058;55.772;38.224;2022-10-19T16:28:50;8.65;;;3.50;;
58240;SDS011;45058;55.772;38.224;2022-10-19T16:31:17;15.85;;;3.50;;
58240;SDS011;45058;55.772;38.224;2022-10-19T16:33:44;4.60;;;3.10;;
58240;SDS011;45058;55.772;38.224;2022-10-19T16:36:10;10.40;;;3.40;;
58240;SDS011;45058;55.772;38.224;2022-10-19T16:38:37;8.55;;;3.05;;
58240;SDS011;45058;55.772;38.224;2022-10-19T16:41:04;7.47;;;3.42;;
58240;SDS011;45058;55.772;38.224;2022-10-19T16:43:32;9.20;;;3.53;;
58240;SDS011;45058;55.772;38.224;2022-10-19T16:45:59;6.22;;;3.47;;
58240;SDS011;45058;55.772;38.224;2022-10-19T16:48:25;9.05;;;3.40;;
58240;SDS011;45058;55.772;38.224;2022-10-19T16:51:14;7.22;;;3.10;;
58240;SDS011;45058;55.772;38.224;2022-10-19T16:53:41;6.00;;;3.10;;
58240;SDS011;45058;55.772;38.224;2022-10-19T16:56:08;6.00;;;3.33;;
58240;SDS011;45058;55.772;38.224;2022-10-19T16:58:37;5.78;;;3.58;;
58240;SDS011;45058;55.772;38.224;2022-10-19T17:01:11;8.65;;;3.78;;
58240;SDS011;45058;55.772;38.224;2022-10-19T17:03:40;8.65;;;4.07;;
58240;SDS011;45058;55.772;38.224;2022-10-19T17:06:07;9.60;;;3.58;;
58240;SDS011;45058;55.772;38.224;2022-10-19T17:08:33;8.25;;;4.00;;
58240;SDS011;45058;55.772;38.224;2022-10-19T17:11:14;10.35;;;3.45;;
58240;SDS011;45058;55.772;38.224;2022-10-19T17:13:42;7.25;;;3.70;;
58240;SDS011;45058;55.772;38.224;2022-10-19T17:16:09;6.90;;;3.50;;